This is the latest recevied weather packets stored in our database for station/object LROP. If no packets are shown the sender has not sent any weather packets the latest 10 day(s).
| Time | Temp. | Humidity | Pressure | Rain* | Wind** | Luminosity | Snow |
|---|---|---|---|---|---|---|---|
| 1777623500 | 11.11° C | 44% | 1026 hPa | - | - | - | - |
| 1777622582 | 11.11° C | 44% | 1026 hPa | - | - | - | - |
| 1777621682 | 11.11° C | 47% | 1026 hPa | - | - | - | - |
| 1777620782 | 11.11° C | 47% | 1026 hPa | - | - | - | - |
| 1777619882 | 10° C | 58% | 1026 hPa | - | - | - | - |
| 1777618982 | 10° C | 58% | 1026 hPa | - | - | - | - |
| 1777618086 | 8.89° C | 62% | 1025 hPa | - | - | - | - |
| 1777617182 | 8.89° C | 62% | 1025 hPa | - | - | - | - |
| 1777616284 | 7.22° C | 76% | 1026 hPa | - | - | - | - |
| 1777615382 | 7.22° C | 76% | 1026 hPa | - | - | - | - |
| 1777614482 | 5° C | 76% | 1025 hPa | - | - | - | - |
| 1777613582 | 5° C | 76% | 1025 hPa | - | - | - | - |
| 1777612682 | 3.89° C | 81% | 1025 hPa | - | - | - | - |
| 1777611782 | 3.89° C | 81% | 1025 hPa | - | - | - | - |
| 1777610882 | 3.89° C | 87% | 1025 hPa | - | - | - | - |
| 1777609981 | 3.89° C | 87% | 1025 hPa | - | - | - | - |
| 1777609082 | 2.22° C | 100% | 1025 hPa | - | - | - | - |
| 1777608182 | 2.22° C | 100% | 1025 hPa | - | - | - | - |
| 1777607282 | 1.11° C | 100% | 1025 hPa | - | - | - | - |
| 1777606382 | 1.11° C | 100% | 1025 hPa | - | - | - | - |
| 1777605482 | 1.11° C | 100% | 1025 hPa | - | - | - | - |
| 1777604582 | 1.11° C | 100% | 1025 hPa | - | - | - | - |
| 1777603682 | 2.22° C | 100% | 1025 hPa | - | - | - | - |
| 1777602782 | 2.22° C | 100% | 1025 hPa | - | - | - | - |
| 1777601881 | 2.22° C | 100% | 1025 hPa | - | - | - | - |
* Rain since midnight (hover to see other rain measurements)
** Current wind speed in m/s (hover to see current wind gust speed)